Observations for Trim Market St
| Time | AQI | Temp °C | Hum % | Pres Pa | CO μg/m³ | H₂S μg/m³ | NO μg/m³ | NO₂ μg/m³ | O₃ μg/m³ | SO₂ μg/m³ | PM1 μg/m³ | PM2.5 μg/m³ | PM10 μg/m³ |
|---|---|---|---|---|---|---|---|---|---|---|---|---|---|
| Tuesday 7 July 2026 | |||||||||||||
| 21:13 | 1 | 25.4 | 57 | 57,850 | 0 | 1.72 | 0 | 10.62 | 15.49 | 0 | 2.85 | 4.67 | 6.12 |
| 21:12 | 1 | 25.4 | 57 | 57,852 | 0 | 0.71 | 0 | 9.23 | 15.45 | 0 | 2.14 | 4.68 | 6.12 |
| 21:11 | 1 | 25.5 | 57 | 57,854 | 0 | 1.5 | 0 | 7.73 | 15.25 | 0 | 2.14 | 4.69 | 6.12 |
| 21:09 | 1 | 25.5 | 56 | 57,854 | 0 | 6.37 | 0 | 11.76 | 23.77 | 0 | 2.14 | 4.2 | 6.11 |
| 21:06 | 1 | 25.7 | 56 | 57,849 | 0 | 2.71 | 0 | 11.74 | 15.52 | 0 | 2.85 | 4.72 | 6.82 |
| 21:02 | 1 | 25.8 | 56 | 57,826 | 0 | 1.62 | 0 | 9.58 | 15.67 | 0 | 2.85 | 5.76 | 7.53 |
| 20:59 | 1 | 25.9 | 55 | 57,765 | 0 | 4.33 | 0 | 10.8 | 13.83 | 0 | 3.56 | 6.79 | 8.96 |
| 20:55 | 1 | 26.1 | 55 | 57,564 | 0 | 3.52 | 0 | 13.21 | 8.4 | 0 | 2.85 | 5.81 | 8.25 |
| 20:52 | 1 | 26.2 | 54 | 57,382 | 0 | 0 | 0 | 8.7 | 11.88 | 0 | 2.85 | 5.31 | 7.53 |
| 20:48 | 1 | 26.3 | 54 | 57,358 | 0 | 1.46 | 0 | 9.8 | 16.04 | 0 | 2.14 | 6.34 | 8.25 |
| 20:47 | 1 | 26.4 | 54 | 57,336 | 0 | 1.72 | 0 | 11.78 | 12.02 | 0 | 2.85 | 5.32 | 6.81 |
| 20:46 | 1 | 26.4 | 54 | 57,289 | 0 | 2.07 | 0 | 10.09 | 17.08 | 0 | 2.14 | 4.82 | 6.09 |
| 20:45 | 1 | 26.4 | 54 | 57,232 | 0 | 2.92 | 0 | 10.81 | 13.38 | 0 | 3.56 | 5.84 | 8.25 |
| 20:44 | 1 | 26.4 | 54 | 57,172 | 0 | 1.83 | 0 | 13.92 | 11.73 | 0 | 2.85 | 6.87 | 8.97 |
| 20:43 | 1 | 26.5 | 54 | 57,102 | 0 | 0.87 | 0 | 10.3 | 15.28 | 0 | 2.85 | 5.34 | 7.53 |
| 20:42 | 1 | 26.5 | 54 | 57,054 | 0 | 1.67 | 0 | 10.22 | 12.87 | 0 | 4.28 | 6.37 | 8.25 |
| 20:41 | 1 | 26.5 | 54 | 57,011 | 0 | 2.73 | 0 | 10.62 | 12.12 | 0 | 3.56 | 5.36 | 7.53 |
| 20:40 | 1 | 26.6 | 54 | 56,942 | 0 | 3.71 | 0 | 13.71 | 18.95 | 0 | 3.56 | 5.87 | 8.25 |
| 20:39 | 1 | 26.6 | 53 | 56,844 | 0 | 1.39 | 0 | 10.43 | 12.89 | 0 | 2.85 | 5.88 | 7.53 |
| 20:38 | 1 | 26.6 | 53 | 56,772 | 0 | 3.18 | 0 | 11.84 | 13.28 | 0 | 2.85 | 6.91 | 8.98 |